createdAt,value
2018-09-16T00:00:25.612Z,1014.31
2018-09-16T00:01:25.821Z,1014.31
2018-09-16T00:02:26.035Z,1014.37
2018-09-16T00:03:26.325Z,1014.37
2018-09-16T00:04:26.428Z,1014.36
2018-09-16T00:05:26.674Z,1014.36
2018-09-16T00:06:26.880Z,1014.35
2018-09-16T00:07:27.090Z,1014.30
2018-09-16T00:08:27.330Z,1014.29
2018-09-16T00:09:27.608Z,1014.28
2018-09-16T00:10:27.767Z,1014.27
2018-09-16T00:11:27.971Z,1014.29
2018-09-16T00:12:28.139Z,1014.27
2018-09-16T00:13:28.525Z,1014.31
2018-09-16T00:14:28.704Z,1014.27
2018-09-16T00:15:28.898Z,1014.28
2018-09-16T00:16:29.101Z,1014.28
2018-09-16T00:17:29.297Z,1014.35
2018-09-16T00:18:29.540Z,1014.35
2018-09-16T00:19:29.719Z,1014.35
2018-09-16T00:20:30.134Z,1014.34
2018-09-16T00:21:30.352Z,1014.32
2018-09-16T00:22:30.565Z,1014.30
2018-09-16T00:23:30.768Z,1014.33
2018-09-16T00:24:31.043Z,1014.38
2018-09-16T00:25:31.247Z,1014.30
2018-09-16T00:26:31.419Z,1014.32
2018-09-16T00:27:31.787Z,1014.29
2018-09-16T00:28:31.930Z,1014.26
2018-09-16T00:29:32.037Z,1014.26
2018-09-16T00:30:32.251Z,1014.27
2018-09-16T00:31:32.458Z,1014.33
2018-09-16T00:32:32.717Z,1014.32
2018-09-16T00:33:32.978Z,1014.32
2018-09-16T00:34:33.490Z,1014.34
2018-09-16T00:35:33.593Z,1014.33
2018-09-16T00:36:34.108Z,1014.26
2018-09-16T00:37:33.810Z,1014.30
2018-09-16T00:38:34.139Z,1014.24
2018-09-16T00:39:34.545Z,1014.22
2018-09-16T00:40:34.864Z,1014.28
2018-09-16T00:41:35.482Z,1014.30
2018-09-16T00:42:35.488Z,1014.28
2018-09-16T00:43:35.603Z,1014.33
2018-09-16T00:44:35.702Z,1014.21
2018-09-16T00:45:35.709Z,1014.21
2018-09-16T00:46:35.508Z,1014.24
2018-09-16T00:47:36.034Z,1014.24
2018-09-16T00:48:36.153Z,1014.23
2018-09-16T00:49:36.136Z,1014.21
2018-09-16T00:50:36.580Z,1014.15
2018-09-16T00:51:36.763Z,1014.19
2018-09-16T00:52:36.977Z,1014.18
2018-09-16T00:53:37.092Z,1014.19
2018-09-16T00:54:37.190Z,1014.20
2018-09-16T00:55:37.193Z,1014.15
2018-09-16T00:56:37.277Z,1014.23
2018-09-16T00:57:37.299Z,1014.21
2018-09-16T00:58:37.302Z,1014.21
2018-09-16T00:59:37.632Z,1014.22
2018-09-16T01:00:38.018Z,1014.14
2018-09-16T01:01:38.454Z,1014.17
2018-09-16T01:02:38.826Z,1014.17
2018-09-16T01:03:39.188Z,1014.22
2018-09-16T01:04:39.549Z,1014.10
2018-09-16T01:05:39.902Z,1014.11
2018-09-16T01:06:40.070Z,1014.14
2018-09-16T01:07:40.320Z,1014.11
2018-09-16T01:08:40.426Z,1014.11
2018-09-16T01:09:40.821Z,1014.09
2018-09-16T01:10:40.927Z,1014.08
2018-09-16T01:11:41.152Z,1014.06
2018-09-16T01:12:41.343Z,1014.00
2018-09-16T01:13:41.600Z,1014.01
2018-09-16T01:14:41.758Z,1014.04
2018-09-16T01:15:41.992Z,1014.07
2018-09-16T01:16:42.189Z,1014.07
2018-09-16T01:17:42.512Z,1014.06
2018-09-16T01:18:42.716Z,1013.99
2018-09-16T01:19:42.919Z,1014.10
2018-09-16T01:20:43.149Z,1014.08
2018-09-16T01:21:43.352Z,1014.06
2018-09-16T01:22:43.616Z,1014.04
2018-09-16T01:23:43.733Z,1014.03
2018-09-16T01:24:43.867Z,1014.05
2018-09-16T01:25:44.089Z,1014.06
2018-09-16T01:26:44.234Z,1014.06
2018-09-16T01:27:44.409Z,1014.06
2018-09-16T01:28:44.733Z,1014.05
2018-09-16T01:29:44.937Z,1014.05
2018-09-16T01:30:45.303Z,1014.05
2018-09-16T01:31:45.462Z,1014.09
2018-09-16T01:32:45.553Z,1014.09
2018-09-16T01:33:45.864Z,1014.09
2018-09-16T01:34:46.086Z,1014.08
2018-09-16T01:35:46.355Z,1014.08
2018-09-16T01:36:46.517Z,1014.05
2018-09-16T01:37:46.722Z,1014.03
2018-09-16T01:38:47.522Z,1014.01
2018-09-16T01:39:47.203Z,1014.00
2018-09-16T01:40:47.353Z,1013.99
2018-09-16T01:41:47.650Z,1013.99
2018-09-16T01:42:47.773Z,1013.97
2018-09-16T01:43:47.913Z,1013.97
2018-09-16T01:44:48.689Z,1013.97
2018-09-16T01:45:48.901Z,1013.95
2018-09-16T01:46:49.420Z,1013.94
2018-09-16T01:47:49.324Z,1013.93
2018-09-16T01:48:49.547Z,1013.92
2018-09-16T01:49:49.952Z,1013.92
2018-09-16T01:50:50.380Z,1013.88
2018-09-16T01:51:50.868Z,1013.89
2018-09-16T01:52:50.904Z,1013.89
2018-09-16T01:53:51.519Z,1013.87
2018-09-16T01:54:51.244Z,1013.87
2018-09-16T01:55:51.647Z,1013.86
2018-09-16T01:56:51.339Z,1013.85
2018-09-16T01:57:51.943Z,1013.82
2018-09-16T01:58:52.089Z,1013.81
2018-09-16T01:59:52.168Z,1013.81
2018-09-16T02:00:52.289Z,1013.84
2018-09-16T02:01:52.241Z,1013.82
2018-09-16T02:02:52.565Z,1013.79
2018-09-16T02:03:52.900Z,1013.78
2018-09-16T02:04:53.609Z,1013.78
2018-09-16T02:05:53.523Z,1013.76
2018-09-16T02:06:53.896Z,1013.75
2018-09-16T02:07:54.351Z,1013.72
2018-09-16T02:08:54.588Z,1013.72
2018-09-16T02:09:54.778Z,1013.72
2018-09-16T02:10:54.976Z,1013.73
2018-09-16T02:11:55.081Z,1013.73
2018-09-16T02:12:55.249Z,1013.71
2018-09-16T02:13:55.580Z,1013.76
2018-09-16T02:14:55.818Z,1013.66
2018-09-16T02:15:55.939Z,1013.70
2018-09-16T02:16:56.092Z,1013.66
2018-09-16T02:17:56.314Z,1013.58
2018-09-16T02:18:56.544Z,1013.61
2018-09-16T02:19:56.716Z,1013.62
2018-09-16T02:20:56.825Z,1013.64
2018-09-16T02:21:56.956Z,1013.67
2018-09-16T02:22:57.236Z,1013.76
2018-09-16T02:23:57.418Z,1013.70
2018-09-16T02:24:57.613Z,1013.73
2018-09-16T02:25:57.795Z,1013.74
2018-09-16T02:26:57.900Z,1013.71
2018-09-16T02:27:58.107Z,1013.75
2018-09-16T02:28:58.508Z,1013.75
2018-09-16T02:29:58.629Z,1013.71
2018-09-16T02:30:58.845Z,1013.75
2018-09-16T02:31:59.055Z,1013.78
2018-09-16T02:32:59.274Z,1013.80
2018-09-16T02:33:59.392Z,1013.77
2018-09-16T02:34:59.672Z,1013.76
2018-09-16T02:35:59.808Z,1013.76
2018-09-16T02:36:59.920Z,1013.77
2018-09-16T02:38:00.117Z,1013.77
2018-09-16T02:39:00.324Z,1013.71
2018-09-16T02:40:00.425Z,1013.77
2018-09-16T02:41:00.586Z,1013.73
2018-09-16T02:42:00.806Z,1013.64
2018-09-16T02:43:00.967Z,1013.70
2018-09-16T02:44:01.177Z,1013.62
2018-09-16T02:45:01.467Z,1013.64
2018-09-16T02:46:01.598Z,1013.63
2018-09-16T02:47:01.959Z,1013.60
2018-09-16T02:48:02.255Z,1013.64
2018-09-16T02:49:02.591Z,1013.54
2018-09-16T02:50:03.145Z,1013.53
2018-09-16T02:51:02.751Z,1013.55
2018-09-16T02:52:02.960Z,1013.54
2018-09-16T02:53:03.573Z,1013.55
2018-09-16T02:54:03.886Z,1013.57
2018-09-16T02:55:04.408Z,1013.54
2018-09-16T02:56:04.105Z,1013.54
2018-09-16T02:57:04.739Z,1013.52
2018-09-16T02:58:04.731Z,1013.51
2018-09-16T02:59:05.252Z,1013.50
2018-09-16T03:00:04.950Z,1013.50
2018-09-16T03:01:05.573Z,1013.50
2018-09-16T03:02:05.484Z,1013.48
2018-09-16T03:03:06.099Z,1013.43
2018-09-16T03:04:06.170Z,1013.43
2018-09-16T03:05:06.217Z,1013.43
2018-09-16T03:06:06.318Z,1013.42
2018-09-16T03:07:06.294Z,1013.42
2018-09-16T03:08:06.441Z,1013.49
2018-09-16T03:09:06.753Z,1013.45
2018-09-16T03:10:06.947Z,1013.40
2018-09-16T03:11:07.153Z,1013.46
2018-09-16T03:12:07.151Z,1013.52
2018-09-16T03:13:07.481Z,1013.50
2018-09-16T03:14:07.816Z,1013.50
2018-09-16T03:15:08.224Z,1013.46
2018-09-16T03:16:08.486Z,1013.46
2018-09-16T03:17:08.661Z,1013.46
2018-09-16T03:18:09.144Z,1013.45
2018-09-16T03:19:09.246Z,1013.51
2018-09-16T03:20:09.400Z,1013.50
2018-09-16T03:21:09.710Z,1013.37
2018-09-16T03:22:09.827Z,1013.39
2018-09-16T03:23:09.928Z,1013.42
2018-09-16T03:24:10.146Z,1013.42
2018-09-16T03:25:10.467Z,1013.40
2018-09-16T03:26:10.685Z,1013.42
2018-09-16T03:27:12.015Z,1013.41
2018-09-16T03:28:11.196Z,1013.47
2018-09-16T03:29:11.526Z,1013.49
2018-09-16T03:30:11.724Z,1013.49
2018-09-16T03:31:11.947Z,1013.44
2018-09-16T03:32:12.329Z,1013.52
2018-09-16T03:33:12.458Z,1013.47
2018-09-16T03:34:12.566Z,1013.50
2018-09-16T03:35:12.778Z,1013.50
2018-09-16T03:36:13.001Z,1013.49
2018-09-16T03:37:13.210Z,1013.47
2018-09-16T03:38:13.490Z,1013.46
2018-09-16T03:39:13.740Z,1013.49
2018-09-16T03:40:14.120Z,1013.47
2018-09-16T03:41:14.253Z,1013.41
2018-09-16T03:42:14.493Z,1013.38
2018-09-16T03:43:14.593Z,1013.38
2018-09-16T03:44:14.792Z,1013.38
2018-09-16T03:45:15.244Z,1013.38
2018-09-16T03:46:15.425Z,1013.45
2018-09-16T03:47:15.526Z,1013.38
2018-09-16T03:48:15.743Z,1013.33
2018-09-16T03:49:16.010Z,1013.34
2018-09-16T03:50:16.617Z,1013.32
2018-09-16T03:51:16.279Z,1013.33
2018-09-16T03:52:16.474Z,1013.33
2018-09-16T03:54:16.887Z,1013.32
2018-09-16T03:55:17.119Z,1013.29
2018-09-16T03:56:17.322Z,1013.32
2018-09-16T03:57:17.654Z,1013.36
2018-09-16T03:58:17.844Z,1013.34
2018-09-16T03:59:18.446Z,1013.34
2018-09-16T04:00:18.756Z,1013.36
2018-09-16T04:01:19.070Z,1013.38
2018-09-16T04:02:19.397Z,1013.30
2018-09-16T04:03:20.010Z,1013.30
2018-09-16T04:04:20.013Z,1013.22
2018-09-16T04:05:20.025Z,1013.31
2018-09-16T04:06:20.129Z,1013.26
2018-09-16T04:07:20.247Z,1013.23
2018-09-16T04:08:20.144Z,1013.24
2018-09-16T04:09:20.662Z,1013.27
2018-09-16T04:11:20.672Z,1013.26
2018-09-16T04:12:20.955Z,1013.24
2018-09-16T04:13:21.370Z,1013.23
2018-09-16T04:14:21.820Z,1013.25
2018-09-16T04:15:22.029Z,1013.20
2018-09-16T04:16:22.096Z,1013.23
2018-09-16T04:17:22.131Z,1013.23
2018-09-16T04:18:22.250Z,1013.27
2018-09-16T04:19:22.441Z,1013.28
2018-09-16T04:20:22.462Z,1013.21
2018-09-16T04:21:22.329Z,1013.20
2018-09-16T04:22:22.785Z,1013.23
2018-09-16T04:23:23.211Z,1013.22
2018-09-16T04:24:23.753Z,1013.23
2018-09-16T04:25:23.696Z,1013.23
2018-09-16T04:26:24.095Z,1013.25
2018-09-16T04:27:24.293Z,1013.28
2018-09-16T04:28:24.772Z,1013.30
2018-09-16T04:29:24.939Z,1013.26
2018-09-16T04:30:25.121Z,1013.32
2018-09-16T04:31:25.332Z,1013.31
2018-09-16T04:32:25.611Z,1013.30
2018-09-16T04:33:25.805Z,1013.30
2018-09-16T04:34:25.978Z,1013.29
2018-09-16T04:35:26.181Z,1013.30
2018-09-16T04:36:26.289Z,1013.29
2018-09-16T04:37:26.491Z,1013.29
2018-09-16T04:38:26.615Z,1013.30
2018-09-16T04:39:26.813Z,1013.30
2018-09-16T04:40:27.031Z,1013.30
2018-09-16T04:41:27.238Z,1013.29
2018-09-16T04:42:27.520Z,1013.31
2018-09-16T04:43:27.671Z,1013.30
2018-09-16T04:44:27.871Z,1013.29
2018-09-16T04:45:28.079Z,1013.29
2018-09-16T04:46:28.298Z,1013.26
2018-09-16T04:47:28.397Z,1013.27
2018-09-16T04:48:28.629Z,1013.25
2018-09-16T04:49:28.905Z,1013.27
2018-09-16T04:50:29.053Z,1013.28
2018-09-16T04:51:29.257Z,1013.30
2018-09-16T04:52:29.352Z,1013.30
2018-09-16T04:53:29.585Z,1013.31
2018-09-16T04:54:29.780Z,1013.29
2018-09-16T04:55:29.987Z,1013.29
2018-09-16T04:56:30.209Z,1013.29
2018-09-16T04:57:30.434Z,1013.30
2018-09-16T04:58:30.542Z,1013.30
2018-09-16T04:59:30.743Z,1013.31
2018-09-16T05:00:30.951Z,1013.30
2018-09-16T05:01:31.156Z,1013.31
2018-09-16T05:02:31.371Z,1013.31
2018-09-16T05:03:31.517Z,1013.31
2018-09-16T05:04:31.694Z,1013.31
2018-09-16T05:05:31.790Z,1013.32
2018-09-16T05:06:32.008Z,1013.31
2018-09-16T05:07:32.232Z,1013.31
2018-09-16T05:08:32.440Z,1013.33
2018-09-16T05:09:32.827Z,1013.34
2018-09-16T05:10:33.051Z,1013.35
2018-09-16T05:11:33.967Z,1013.34
2018-09-16T05:12:34.492Z,1013.32
2018-09-16T05:13:34.298Z,1013.32
2018-09-16T05:14:34.605Z,1013.32
2018-09-16T05:15:35.057Z,1013.34
2018-09-16T05:16:35.637Z,1013.35
2018-09-16T05:17:35.648Z,1013.35
2018-09-16T05:18:35.765Z,1013.35
2018-09-16T05:19:35.864Z,1013.36
2018-09-16T05:20:35.974Z,1013.37
2018-09-16T05:21:36.083Z,1013.38
2018-09-16T05:22:36.111Z,1013.39
2018-09-16T05:23:36.413Z,1013.38
2018-09-16T05:24:36.930Z,1013.36
2018-09-16T05:25:36.630Z,1013.37
2018-09-16T05:26:36.935Z,1013.37
2018-09-16T05:27:37.025Z,1013.39
2018-09-16T05:28:37.138Z,1013.40
2018-09-16T05:29:37.157Z,1013.40
2018-09-16T05:30:37.265Z,1013.42
2018-09-16T05:31:37.233Z,1013.41
2018-09-16T05:32:37.593Z,1013.43
2018-09-16T05:33:37.939Z,1013.42
2018-09-16T05:34:38.517Z,1013.41
2018-09-16T05:35:38.457Z,1013.39
2018-09-16T05:36:39.096Z,1013.39
2018-09-16T05:37:39.167Z,1013.40
2018-09-16T05:38:39.220Z,1013.40
2018-09-16T05:39:39.284Z,1013.40
2018-09-16T05:40:39.297Z,1013.41
2018-09-16T05:41:39.333Z,1013.42
2018-09-16T05:42:39.427Z,1013.43
2018-09-16T05:43:39.346Z,1013.43
2018-09-16T05:44:39.613Z,1013.45
2018-09-16T05:45:39.883Z,1013.48
2018-09-16T05:46:40.053Z,1013.47
2018-09-16T05:47:40.302Z,1013.47
2018-09-16T05:48:40.495Z,1013.47
2018-09-16T05:49:40.741Z,1013.45
2018-09-16T05:50:40.901Z,1013.46
2018-09-16T05:51:41.111Z,1013.44
2018-09-16T05:52:41.375Z,1013.43
2018-09-16T05:53:41.611Z,1013.44
2018-09-16T05:54:41.805Z,1013.43
2018-09-16T05:55:41.943Z,1013.43
2018-09-16T05:56:42.064Z,1013.43
2018-09-16T05:57:42.278Z,1013.42
2018-09-16T05:58:42.498Z,1013.43
2018-09-16T05:59:42.598Z,1013.43
2018-09-16T06:00:42.851Z,1013.43
2018-09-16T06:01:43.031Z,1013.41
2018-09-16T06:02:43.236Z,1013.42
2018-09-16T06:03:43.351Z,1013.41
2018-09-16T06:04:43.572Z,1013.41
2018-09-16T06:05:43.775Z,1013.44
2018-09-16T06:06:44.016Z,1013.44
2018-09-16T06:07:44.129Z,1013.45
2018-09-16T06:08:44.246Z,1013.44
2018-09-16T06:09:44.417Z,1013.43
2018-09-16T06:10:44.740Z,1013.42
2018-09-16T06:11:44.935Z,1013.41
2018-09-16T06:12:45.148Z,1013.41
2018-09-16T06:13:45.364Z,1013.40
2018-09-16T06:14:45.566Z,1013.41
2018-09-16T06:15:45.673Z,1013.39
2018-09-16T06:16:45.885Z,1013.40
2018-09-16T06:17:46.161Z,1013.40
2018-09-16T06:18:46.366Z,1013.41
2018-09-16T06:19:46.587Z,1013.41
2018-09-16T06:20:46.745Z,1013.40
2018-09-16T06:21:46.941Z,1013.39
2018-09-16T06:22:47.190Z,1013.39
2018-09-16T06:23:47.400Z,1013.37
2018-09-16T06:24:47.755Z,1013.34
2018-09-16T06:25:48.080Z,1013.33
2018-09-16T06:26:48.799Z,1013.32
2018-09-16T06:27:49.246Z,1013.34
2018-09-16T06:28:49.321Z,1013.31
2018-09-16T06:29:49.639Z,1013.30
2018-09-16T06:30:50.061Z,1013.32
2018-09-16T06:31:50.668Z,1013.32
2018-09-16T06:32:50.776Z,1013.31
2018-09-16T06:33:50.798Z,1013.31
2018-09-16T06:34:50.895Z,1013.28
2018-09-16T06:35:50.901Z,1013.28
2018-09-16T06:36:50.802Z,1013.27
2018-09-16T06:37:51.118Z,1013.26
2018-09-16T06:38:51.727Z,1013.27
2018-09-16T06:39:51.440Z,1013.27
2018-09-16T06:40:51.945Z,1013.27
2018-09-16T06:41:51.772Z,1013.28
2018-09-16T06:42:51.927Z,1013.29
2018-09-16T06:43:52.092Z,1013.30
2018-09-16T06:44:52.397Z,1013.30
2018-09-16T06:45:52.235Z,1013.30
2018-09-16T06:46:52.662Z,1013.28
2018-09-16T06:47:52.998Z,1013.28
2018-09-16T06:48:53.553Z,1013.28
2018-09-16T06:49:53.434Z,1013.27
2018-09-16T06:50:53.847Z,1013.27
2018-09-16T06:51:54.241Z,1013.26
2018-09-16T06:52:54.475Z,1013.28
2018-09-16T06:53:54.911Z,1013.27
2018-09-16T06:54:55.050Z,1013.28
2018-09-16T06:55:55.319Z,1013.28
2018-09-16T06:56:55.535Z,1013.29
2018-09-16T06:57:55.761Z,1013.31
2018-09-16T06:58:56.031Z,1013.29
2018-09-16T06:59:56.291Z,1013.28
2018-09-16T07:00:56.492Z,1013.26
2018-09-16T07:01:56.804Z,1013.27
2018-09-16T07:02:57.099Z,1013.28
2018-09-16T07:03:57.256Z,1013.28
2018-09-16T07:04:57.516Z,1013.28
2018-09-16T07:05:57.762Z,1013.30
2018-09-16T07:06:57.895Z,1013.30
2018-09-16T07:07:58.104Z,1013.30
2018-09-16T07:08:58.393Z,1013.31
2018-09-16T07:09:59.118Z,1013.31
2018-09-16T07:10:58.731Z,1013.31
2018-09-16T07:11:58.950Z,1013.31
2018-09-16T07:12:59.155Z,1013.33
2018-09-16T07:13:59.375Z,1013.31
2018-09-16T07:14:59.585Z,1013.33
2018-09-16T07:15:59.794Z,1013.33
2018-09-16T07:17:00.019Z,1013.34
2018-09-16T07:18:00.213Z,1013.34
2018-09-16T07:19:00.470Z,1013.34
2018-09-16T07:20:00.826Z,1013.36
2018-09-16T07:21:00.949Z,1013.39
2018-09-16T07:22:01.161Z,1013.39
2018-09-16T07:23:01.375Z,1013.39
2018-09-16T07:24:01.663Z,1013.40
2018-09-16T07:25:02.282Z,1013.40
2018-09-16T07:26:02.085Z,1013.39
2018-09-16T07:27:02.157Z,1013.36
2018-09-16T07:28:02.421Z,1013.35
2018-09-16T07:29:02.501Z,1013.35
2018-09-16T07:30:03.131Z,1013.34
2018-09-16T07:31:05.807Z,1013.34
2018-09-16T07:32:03.555Z,1013.34
2018-09-16T07:33:04.093Z,1013.33
2018-09-16T07:34:04.107Z,1013.34
2018-09-16T07:35:04.506Z,1013.33
2018-09-16T07:36:05.019Z,1013.33
2018-09-16T07:37:05.046Z,1013.33
2018-09-16T07:38:04.933Z,1013.35
2018-09-16T07:39:05.356Z,1013.34
2018-09-16T07:40:05.864Z,1013.35
2018-09-16T07:41:05.563Z,1013.35
2018-09-16T07:42:06.049Z,1013.37
2018-09-16T07:43:08.797Z,1013.38
2018-09-16T07:44:06.605Z,1013.39
2018-09-16T07:45:06.832Z,1013.40
2018-09-16T07:46:07.126Z,1013.41
2018-09-16T07:47:07.226Z,1013.43
2018-09-16T07:48:07.326Z,1013.44
2018-09-16T07:49:07.264Z,1013.46
2018-09-16T07:50:07.667Z,1013.47
2018-09-16T07:51:07.853Z,1013.49
2018-09-16T07:52:08.090Z,1013.48
2018-09-16T07:53:08.564Z,1013.49
2018-09-16T07:54:08.901Z,1013.47
2018-09-16T07:55:09.305Z,1013.45
2018-09-16T07:56:09.643Z,1013.46
2018-09-16T07:57:09.938Z,1013.49
2018-09-16T07:58:10.133Z,1013.50
2018-09-16T07:59:10.318Z,1013.50
2018-09-16T08:00:10.439Z,1013.50
2018-09-16T08:01:10.663Z,1013.51
2018-09-16T08:02:10.861Z,1013.53
2018-09-16T08:03:11.058Z,1013.50
2018-09-16T08:04:11.263Z,1013.51
2018-09-16T08:05:11.374Z,1013.51
2018-09-16T08:06:11.817Z,1013.50
2018-09-16T08:07:11.902Z,1013.48
2018-09-16T08:08:12.113Z,1013.48
2018-09-16T08:09:12.680Z,1013.48
2018-09-16T08:10:12.368Z,1013.48
2018-09-16T08:11:12.579Z,1013.48
2018-09-16T08:12:12.748Z,1013.46
2018-09-16T08:13:13.005Z,1013.46
2018-09-16T08:14:13.213Z,1013.46
2018-09-16T08:15:13.782Z,1013.46
2018-09-16T08:16:13.607Z,1013.43
2018-09-16T08:17:13.808Z,1013.41
2018-09-16T08:18:14.055Z,1013.38
2018-09-16T08:19:14.228Z,1013.38
2018-09-16T08:20:14.531Z,1013.38
2018-09-16T08:21:14.722Z,1013.37
2018-09-16T08:22:14.765Z,1013.39
2018-09-16T08:23:15.028Z,1013.39
2018-09-16T08:24:15.191Z,1013.39
2018-09-16T08:25:15.635Z,1013.38
2018-09-16T08:26:15.823Z,1013.36
2018-09-16T08:27:16.079Z,1013.35
2018-09-16T08:28:16.179Z,1013.34
2018-09-16T08:29:16.289Z,1013.33
2018-09-16T08:30:16.953Z,1013.30
2018-09-16T08:31:16.831Z,1013.30
2018-09-16T08:32:16.983Z,1013.29
2018-09-16T08:33:17.095Z,1013.30
2018-09-16T08:34:17.298Z,1013.32
2018-09-16T08:35:17.551Z,1013.30
2018-09-16T08:36:17.694Z,1013.30
2018-09-16T08:37:17.832Z,1013.29
2018-09-16T08:38:18.344Z,1013.26
2018-09-16T08:39:18.440Z,1013.26
2018-09-16T08:40:18.451Z,1013.29
2018-09-16T08:41:18.753Z,1013.31
2018-09-16T08:42:19.067Z,1013.22
2018-09-16T08:43:19.484Z,1013.24
2018-09-16T08:45:19.917Z,1013.27
2018-09-16T08:46:20.566Z,1013.28
2018-09-16T08:47:20.633Z,1013.27
2018-09-16T08:48:20.744Z,1013.28
2018-09-16T08:49:20.483Z,1013.29
2018-09-16T08:50:21.081Z,1013.30
2018-09-16T08:51:20.810Z,1013.31
2018-09-16T08:52:21.164Z,1013.33
2018-09-16T08:53:21.394Z,1013.33
2018-09-16T08:54:21.911Z,1013.34
2018-09-16T08:55:21.623Z,1013.35
2018-09-16T08:56:21.921Z,1013.36
2018-09-16T08:57:22.115Z,1013.35
2018-09-16T08:58:22.176Z,1013.35
2018-09-16T08:59:22.400Z,1013.32
2018-09-16T09:00:22.736Z,1013.32
2018-09-16T09:01:23.068Z,1013.34
2018-09-16T09:02:23.478Z,1013.35
2018-09-16T09:03:23.893Z,1013.32
2018-09-16T09:04:24.073Z,1013.30
2018-09-16T09:05:24.303Z,1013.29
2018-09-16T09:06:24.518Z,1013.27
2018-09-16T09:07:24.756Z,1013.32
2018-09-16T09:08:24.871Z,1013.28
2018-09-16T09:09:25.016Z,1013.28
2018-09-16T09:10:25.219Z,1013.28
2018-09-16T09:11:25.356Z,1013.23
2018-09-16T09:12:25.536Z,1013.24
2018-09-16T09:13:25.745Z,1013.24
2018-09-16T09:14:26.108Z,1013.24
2018-09-16T09:15:26.210Z,1013.24
2018-09-16T09:16:26.375Z,1013.22
2018-09-16T09:17:26.585Z,1013.09
2018-09-16T09:18:27.033Z,1013.13
2018-09-16T09:19:27.297Z,1013.14
2018-09-16T09:20:27.438Z,1013.14
2018-09-16T09:21:27.761Z,1013.14
2018-09-16T09:22:28.115Z,1013.09
2018-09-16T09:23:28.526Z,1013.13
2018-09-16T09:24:28.705Z,1013.09
2018-09-16T09:25:28.899Z,1013.11
2018-09-16T09:26:29.104Z,1013.00
2018-09-16T09:27:29.318Z,1012.99
2018-09-16T09:28:29.702Z,1012.99
2018-09-16T09:29:30.126Z,1012.99
2018-09-16T09:30:30.271Z,1012.98
2018-09-16T09:31:30.490Z,1012.98
2018-09-16T09:32:31.981Z,1012.97
2018-09-16T09:33:31.103Z,1012.96
2018-09-16T09:34:31.355Z,1012.96
2018-09-16T09:35:31.559Z,1012.88
2018-09-16T09:36:31.859Z,1012.87
2018-09-16T09:37:32.069Z,1012.86
2018-09-16T09:38:32.168Z,1012.87
2018-09-16T09:39:32.372Z,1012.85
2018-09-16T09:40:32.768Z,1012.84
2018-09-16T09:41:33.379Z,1012.82
2018-09-16T09:42:33.391Z,1012.82
2018-09-16T09:43:33.396Z,1012.81
2018-09-16T09:44:33.706Z,1012.76
2018-09-16T09:45:34.057Z,1012.77
2018-09-16T09:46:34.262Z,1012.77
2018-09-16T09:47:34.344Z,1012.69
2018-09-16T09:48:34.664Z,1012.71
2018-09-16T09:49:35.070Z,1012.68
2018-09-16T09:50:35.605Z,1012.68
2018-09-16T09:51:35.391Z,1012.61
2018-09-16T09:52:35.808Z,1012.67
2018-09-16T09:53:36.075Z,1012.66
2018-09-16T09:54:36.286Z,1012.67
2018-09-16T09:55:36.661Z,1012.65
2018-09-16T09:56:36.958Z,1012.63
2018-09-16T09:57:36.987Z,1012.62
2018-09-16T09:58:37.088Z,1012.56
2018-09-16T09:59:37.206Z,1012.57
2018-09-16T10:00:37.443Z,1012.51
2018-09-16T10:01:37.458Z,1012.51
2018-09-16T10:02:37.318Z,1012.48
2018-09-16T10:03:37.663Z,1012.54
2018-09-16T10:04:38.077Z,1012.49
2018-09-16T10:05:38.589Z,1012.52
2018-09-16T10:06:38.528Z,1012.51
2018-09-16T10:07:38.939Z,1012.49
2018-09-16T10:08:39.564Z,1012.47
2018-09-16T10:09:39.372Z,1012.39
2018-09-16T10:10:39.775Z,1012.34
2018-09-16T10:11:40.117Z,1012.37
2018-09-16T10:12:40.435Z,1012.20
2018-09-16T10:13:40.779Z,1012.39
2018-09-16T10:14:40.892Z,1012.33
2018-09-16T10:15:41.028Z,1012.33
2018-09-16T10:16:41.442Z,1012.32
2018-09-16T10:17:41.720Z,1012.30
2018-09-16T10:18:42.322Z,1012.31
2018-09-16T10:19:42.098Z,1012.35
2018-09-16T10:20:42.279Z,1012.25
2018-09-16T10:21:42.553Z,1012.20
2018-09-16T10:22:42.974Z,1012.25
2018-09-16T10:23:43.279Z,1012.27
2018-09-16T10:24:43.437Z,1012.22
2018-09-16T10:25:43.803Z,1012.22
2018-09-16T10:26:43.937Z,1012.20
2018-09-16T10:27:45.802Z,1012.19
2018-09-16T10:28:45.684Z,1012.19
2018-09-16T10:29:46.928Z,1012.11
2018-09-16T10:30:49.444Z,1012.09
2018-09-16T10:31:46.688Z,1012.13
2018-09-16T10:32:45.682Z,1012.13
2018-09-16T10:33:45.591Z,1012.09
2018-09-16T10:34:48.774Z,1012.07
2018-09-16T10:36:46.168Z,1012.12
2018-09-16T10:37:47.117Z,1012.09
2018-09-16T10:38:46.863Z,1012.06
2018-09-16T10:39:47.604Z,1012.04
2018-09-16T10:40:47.700Z,1011.98
2018-09-16T10:41:47.526Z,1011.93
2018-09-16T10:42:48.332Z,1011.90
2018-09-16T10:43:48.528Z,1011.93
2018-09-16T10:44:48.842Z,1011.95
2018-09-16T10:45:48.963Z,1011.92
2018-09-16T10:46:49.579Z,1011.92
2018-09-16T10:47:49.374Z,1011.88
2018-09-16T10:48:49.686Z,1011.75
2018-09-16T10:49:50.021Z,1011.81
2018-09-16T10:50:50.330Z,1011.79
2018-09-16T10:51:50.733Z,1011.77
2018-09-16T10:52:51.002Z,1011.66
2018-09-16T10:53:51.346Z,1011.68
2018-09-16T10:54:51.562Z,1011.68
2018-09-16T10:55:51.953Z,1011.67
2018-09-16T10:56:52.060Z,1011.68
2018-09-16T10:57:52.103Z,1011.61
2018-09-16T10:58:52.309Z,1011.63
2018-09-16T10:59:52.497Z,1011.58
2018-09-16T11:00:52.392Z,1011.59
2018-09-16T11:01:52.815Z,1011.60
2018-09-16T11:02:53.372Z,1011.59
2018-09-16T11:03:53.280Z,1011.59
2018-09-16T11:04:53.755Z,1011.60
2018-09-16T11:05:54.240Z,1011.60
2018-09-16T11:06:54.429Z,1011.61
2018-09-16T11:07:54.803Z,1011.59
2018-09-16T11:09:55.256Z,1011.60
2018-09-16T11:10:55.634Z,1011.60
2018-09-16T11:11:55.968Z,1011.60
2018-09-16T11:12:56.168Z,1011.60
2018-09-16T11:13:56.364Z,1011.58
2018-09-16T11:14:56.809Z,1011.59
2018-09-16T11:15:57.354Z,1011.57
2018-09-16T11:16:57.622Z,1011.56
2018-09-16T11:17:57.969Z,1011.57
2018-09-16T11:18:58.327Z,1011.58
2018-09-16T11:19:58.553Z,1011.56
2018-09-16T11:20:58.753Z,1011.55
2018-09-16T11:21:59.620Z,1011.53
2018-09-16T11:22:59.481Z,1011.53
2018-09-16T11:23:59.920Z,1011.52
2018-09-16T11:25:00.090Z,1011.50
2018-09-16T11:26:00.477Z,1011.47
2018-09-16T11:27:00.868Z,1011.45
2018-09-16T11:28:01.218Z,1011.53
2018-09-16T11:29:01.730Z,1011.46
2018-09-16T11:30:01.655Z,1011.46
2018-09-16T11:31:01.918Z,1011.47
2018-09-16T11:32:02.319Z,1011.50
2018-09-16T11:33:02.881Z,1011.48
2018-09-16T11:34:02.887Z,1011.50
2018-09-16T11:35:02.681Z,1011.42
2018-09-16T11:36:02.847Z,1011.49
2018-09-16T11:37:03.733Z,1011.49
2018-09-16T11:38:04.041Z,1011.48
2018-09-16T11:40:04.464Z,1011.50
2018-09-16T11:41:04.672Z,1011.50
2018-09-16T11:42:05.103Z,1011.41
2018-09-16T11:43:05.403Z,1011.41
2018-09-16T11:44:05.980Z,1011.47
2018-09-16T11:45:05.847Z,1011.32
2018-09-16T11:46:06.251Z,1011.37
2018-09-16T11:47:06.866Z,1011.41
2018-09-16T11:48:06.561Z,1011.26
2018-09-16T11:49:07.073Z,1011.33
2018-09-16T11:50:06.879Z,1011.23
2018-09-16T11:51:07.308Z,1011.27
2018-09-16T11:52:07.227Z,1011.27
2018-09-16T11:53:07.999Z,1011.26
2018-09-16T11:54:07.836Z,1011.32
2018-09-16T11:55:08.556Z,1011.29
2018-09-16T11:56:08.407Z,1011.23
2018-09-16T11:57:08.757Z,1011.24
2018-09-16T11:58:09.479Z,1011.23
2018-09-16T11:59:09.570Z,1011.19
2018-09-16T12:00:09.889Z,1011.15
2018-09-16T12:01:10.240Z,1011.06
2018-09-16T12:02:10.331Z,1011.13
2018-09-16T12:03:10.365Z,1011.06
2018-09-16T12:04:10.347Z,1011.08
2018-09-16T12:05:11.090Z,1011.07
2018-09-16T12:06:11.389Z,1011.11
2018-09-16T12:07:11.253Z,1011.18
2018-09-16T12:08:11.832Z,1011.03
2018-09-16T12:09:12.325Z,1011.05
2018-09-16T12:10:11.887Z,1011.11
2018-09-16T12:11:12.101Z,1011.04
2018-09-16T12:12:12.276Z,1010.98
2018-09-16T12:13:12.491Z,1010.91
2018-09-16T12:14:12.767Z,1010.91